sensor_id;sensor_type;location;lat;lon;timestamp;temperature;humidity
55836;DHT22;66908;50.988;4.780;2023-03-01T00:01:28;1.30;70.40
55836;DHT22;66908;50.988;4.780;2023-03-01T00:03:55;1.20;71.10
55836;DHT22;66908;50.988;4.780;2023-03-01T00:06:22;1.10;71.60
55836;DHT22;66908;50.988;4.780;2023-03-01T00:08:48;1.00;72.20
55836;DHT22;66908;50.988;4.780;2023-03-01T00:13:41;1.10;73.40
55836;DHT22;66908;50.988;4.780;2023-03-01T00:16:24;1.00;72.60
55836;DHT22;66908;50.988;4.780;2023-03-01T00:18:50;1.00;73.20
55836;DHT22;66908;50.988;4.780;2023-03-01T00:21:17;0.80;73.20
55836;DHT22;66908;50.988;4.780;2023-03-01T00:23:43;0.80;73.20
55836;DHT22;66908;50.988;4.780;2023-03-01T00:26:11;0.70;73.10
55836;DHT22;66908;50.988;4.780;2023-03-01T00:28:38;0.70;70.50
55836;DHT22;66908;50.988;4.780;2023-03-01T00:31:12;0.80;71.70
55836;DHT22;66908;50.988;4.780;2023-03-01T00:33:39;0.80;73.90
55836;DHT22;66908;50.988;4.780;2023-03-01T00:36:06;0.90;74.60
55836;DHT22;66908;50.988;4.780;2023-03-01T00:38:36;0.90;70.40
55836;DHT22;66908;50.988;4.780;2023-03-01T00:41:08;0.90;73.20
55836;DHT22;66908;50.988;4.780;2023-03-01T00:43:34;0.90;69.90
55836;DHT22;66908;50.988;4.780;2023-03-01T00:46:07;0.70;70.20
55836;DHT22;66908;50.988;4.780;2023-03-01T00:48:33;0.70;71.60
55836;DHT22;66908;50.988;4.780;2023-03-01T00:51:07;0.70;73.00
55836;DHT22;66908;50.988;4.780;2023-03-01T00:53:34;0.80;71.80
55836;DHT22;66908;50.988;4.780;2023-03-01T00:56:00;0.80;70.80
55836;DHT22;66908;50.988;4.780;2023-03-01T00:58:26;0.90;70.60
55836;DHT22;66908;50.988;4.780;2023-03-01T01:00:52;0.80;72.60
55836;DHT22;66908;50.988;4.780;2023-03-01T01:03:19;0.70;72.90
55836;DHT22;66908;50.988;4.780;2023-03-01T01:05:45;0.80;70.70
55836;DHT22;66908;50.988;4.780;2023-03-01T01:08:11;0.60;71.10
55836;DHT22;66908;50.988;4.780;2023-03-01T01:10:37;0.70;71.30
55836;DHT22;66908;50.988;4.780;2023-03-01T01:13:03;0.80;70.60
55836;DHT22;66908;50.988;4.780;2023-03-01T01:15:32;0.70;70.70
55836;DHT22;66908;50.988;4.780;2023-03-01T01:17:58;0.50;71.70
55836;DHT22;66908;50.988;4.780;2023-03-01T01:20:24;0.60;71.80
55836;DHT22;66908;50.988;4.780;2023-03-01T01:22:50;0.60;72.80
55836;DHT22;66908;50.988;4.780;2023-03-01T01:25:17;0.40;72.70
55836;DHT22;66908;50.988;4.780;2023-03-01T01:27:42;0.60;72.00
55836;DHT22;66908;50.988;4.780;2023-03-01T01:30:09;0.60;71.50
55836;DHT22;66908;50.988;4.780;2023-03-01T01:32:35;0.70;71.50
55836;DHT22;66908;50.988;4.780;2023-03-01T01:35:01;0.60;71.60
55836;DHT22;66908;50.988;4.780;2023-03-01T01:37:27;0.50;71.80
55836;DHT22;66908;50.988;4.780;2023-03-01T01:40:00;0.50;72.20
55836;DHT22;66908;50.988;4.780;2023-03-01T01:42:29;0.50;72.00
55836;DHT22;66908;50.988;4.780;2023-03-01T01:45:34;0.40;72.20
55836;DHT22;66908;50.988;4.780;2023-03-01T01:48:06;0.20;73.40
55836;DHT22;66908;50.988;4.780;2023-03-01T01:50:39;0.30;73.30
55836;DHT22;66908;50.988;4.780;2023-03-01T01:53:12;0.30;73.20
55836;DHT22;66908;50.988;4.780;2023-03-01T01:55:43;0.40;72.80
55836;DHT22;66908;50.988;4.780;2023-03-01T01:58:12;0.40;72.80
55836;DHT22;66908;50.988;4.780;2023-03-01T02:00:39;0.50;72.30
55836;DHT22;66908;50.988;4.780;2023-03-01T02:03:12;0.60;72.00
55836;DHT22;66908;50.988;4.780;2023-03-01T02:05:45;0.60;73.60
55836;DHT22;66908;50.988;4.780;2023-03-01T02:08:14;0.50;75.30
55836;DHT22;66908;50.988;4.780;2023-03-01T02:10:40;0.20;75.80
55836;DHT22;66908;50.988;4.780;2023-03-01T02:13:07;0.10;76.50
55836;DHT22;66908;50.988;4.780;2023-03-01T02:15:34;0.00;77.40
55836;DHT22;66908;50.988;4.780;2023-03-01T02:18:01;0.00;77.20
55836;DHT22;66908;50.988;4.780;2023-03-01T02:23:05;0.20;73.40
55836;DHT22;66908;50.988;4.780;2023-03-01T02:25:47;0.20;74.20
55836;DHT22;66908;50.988;4.780;2023-03-01T02:30:47;0.10;72.60
55836;DHT22;66908;50.988;4.780;2023-03-01T02:33:34;0.10;73.50
55836;DHT22;66908;50.988;4.780;2023-03-01T02:36:24;0.10;75.00
55836;DHT22;66908;50.988;4.780;2023-03-01T02:38:54;0.10;77.30
55836;DHT22;66908;50.988;4.780;2023-03-01T02:41:22;0.00;77.20
55836;DHT22;66908;50.988;4.780;2023-03-01T02:43:48;0.00;76.00
55836;DHT22;66908;50.988;4.780;2023-03-01T02:46:23;0.00;77.30
55836;DHT22;66908;50.988;4.780;2023-03-01T02:48:54;0.00;78.30
55836;DHT22;66908;50.988;4.780;2023-03-01T02:57:12;-0.30;74.90
55836;DHT22;66908;50.988;4.780;2023-03-01T02:59:39;-0.40;75.80
55836;DHT22;66908;50.988;4.780;2023-03-01T03:02:07;-0.50;76.70
55836;DHT22;66908;50.988;4.780;2023-03-01T03:04:33;-0.50;77.60
55836;DHT22;66908;50.988;4.780;2023-03-01T03:06:59;-0.60;77.90
55836;DHT22;66908;50.988;4.780;2023-03-01T03:09:25;-0.50;77.80
55836;DHT22;66908;50.988;4.780;2023-03-01T03:11:51;-0.50;78.10
55836;DHT22;66908;50.988;4.780;2023-03-01T03:14:17;-0.50;79.00
55836;DHT22;66908;50.988;4.780;2023-03-01T03:16:46;-0.50;76.80
55836;DHT22;66908;50.988;4.780;2023-03-01T03:19:13;-0.20;76.20
55836;DHT22;66908;50.988;4.780;2023-03-01T03:21:39;0.00;75.50
55836;DHT22;66908;50.988;4.780;2023-03-01T03:24:05;-0.20;76.40
55836;DHT22;66908;50.988;4.780;2023-03-01T03:26:31;-0.10;75.90
55836;DHT22;66908;50.988;4.780;2023-03-01T03:28:57;-0.10;74.90
55836;DHT22;66908;50.988;4.780;2023-03-01T03:31:23;-0.40;75.60
55836;DHT22;66908;50.988;4.780;2023-03-01T03:33:49;-0.50;77.10
55836;DHT22;66908;50.988;4.780;2023-03-01T03:36:20;-0.40;75.90
55836;DHT22;66908;50.988;4.780;2023-03-01T03:38:46;-0.20;75.30
55836;DHT22;66908;50.988;4.780;2023-03-01T03:41:13;0.00;74.90
55836;DHT22;66908;50.988;4.780;2023-03-01T03:43:40;-0.10;74.80
55836;DHT22;66908;50.988;4.780;2023-03-01T03:46:08;-0.10;74.80
55836;DHT22;66908;50.988;4.780;2023-03-01T03:48:41;0.00;74.50
55836;DHT22;66908;50.988;4.780;2023-03-01T03:51:13;0.10;74.20
55836;DHT22;66908;50.988;4.780;2023-03-01T03:53:40;0.20;73.70
55836;DHT22;66908;50.988;4.780;2023-03-01T03:56:07;0.10;74.00
55836;DHT22;66908;50.988;4.780;2023-03-01T03:58:33;0.10;74.20
55836;DHT22;66908;50.988;4.780;2023-03-01T04:01:00;-0.10;74.60
55836;DHT22;66908;50.988;4.780;2023-03-01T04:03:29;-0.20;75.70
55836;DHT22;66908;50.988;4.780;2023-03-01T04:05:57;-0.20;75.60
55836;DHT22;66908;50.988;4.780;2023-03-01T04:08:23;-0.10;75.60
55836;DHT22;66908;50.988;4.780;2023-03-01T04:10:52;-0.20;75.20
55836;DHT22;66908;50.988;4.780;2023-03-01T04:13:20;-0.40;76.30
55836;DHT22;66908;50.988;4.780;2023-03-01T04:15:52;-0.50;77.00
55836;DHT22;66908;50.988;4.780;2023-03-01T04:18:20;-0.40;77.30
55836;DHT22;66908;50.988;4.780;2023-03-01T04:20:46;-0.50;77.90
55836;DHT22;66908;50.988;4.780;2023-03-01T04:23:18;-0.70;79.30
55836;DHT22;66908;50.988;4.780;2023-03-01T04:28:20;-0.70;79.90
55836;DHT22;66908;50.988;4.780;2023-03-01T04:30:46;-0.70;79.40
55836;DHT22;66908;50.988;4.780;2023-03-01T04:33:12;-0.50;78.30
55836;DHT22;66908;50.988;4.780;2023-03-01T04:35:38;-0.60;77.40
55836;DHT22;66908;50.988;4.780;2023-03-01T04:38:05;-0.70;78.10
55836;DHT22;66908;50.988;4.780;2023-03-01T04:40:31;-0.50;77.40
55836;DHT22;66908;50.988;4.780;2023-03-01T04:42:57;-0.40;77.20
55836;DHT22;66908;50.988;4.780;2023-03-01T04:45:23;-0.60;77.70
55836;DHT22;66908;50.988;4.780;2023-03-01T04:47:49;-0.70;78.50
55836;DHT22;66908;50.988;4.780;2023-03-01T04:50:18;-0.80;78.30
55836;DHT22;66908;50.988;4.780;2023-03-01T04:52:49;-0.70;78.50
55836;DHT22;66908;50.988;4.780;2023-03-01T04:55:15;-0.70;78.60
55836;DHT22;66908;50.988;4.780;2023-03-01T04:57:41;-0.80;77.50
55836;DHT22;66908;50.988;4.780;2023-03-01T05:00:10;-0.70;77.70
55836;DHT22;66908;50.988;4.780;2023-03-01T05:02:56;-0.80;78.30
55836;DHT22;66908;50.988;4.780;2023-03-01T05:05:32;-0.70;78.30
55836;DHT22;66908;50.988;4.780;2023-03-01T05:08:02;-0.90;78.80
55836;DHT22;66908;50.988;4.780;2023-03-01T05:10:29;-1.00;79.40
55836;DHT22;66908;50.988;4.780;2023-03-01T05:12:57;-0.80;79.10
55836;DHT22;66908;50.988;4.780;2023-03-01T05:15:24;-0.70;78.10
55836;DHT22;66908;50.988;4.780;2023-03-01T05:17:54;-0.80;78.20
55836;DHT22;66908;50.988;4.780;2023-03-01T05:20:21;-0.90;79.00
55836;DHT22;66908;50.988;4.780;2023-03-01T05:22:51;-0.70;78.20
55836;DHT22;66908;50.988;4.780;2023-03-01T05:25:17;-0.80;78.20
55836;DHT22;66908;50.988;4.780;2023-03-01T05:27:43;-0.90;78.90
55836;DHT22;66908;50.988;4.780;2023-03-01T05:30:10;-0.90;78.90
55836;DHT22;66908;50.988;4.780;2023-03-01T05:32:46;-0.90;78.80
55836;DHT22;66908;50.988;4.780;2023-03-01T05:35:15;-0.80;78.60
55836;DHT22;66908;50.988;4.780;2023-03-01T05:37:43;-1.10;79.50
55836;DHT22;66908;50.988;4.780;2023-03-01T05:40:17;-1.20;79.90
55836;DHT22;66908;50.988;4.780;2023-03-01T05:42:56;-1.30;81.50
55836;DHT22;66908;50.988;4.780;2023-03-01T05:45:24;-1.30;81.80
55836;DHT22;66908;50.988;4.780;2023-03-01T05:47:50;-1.20;81.40
55836;DHT22;66908;50.988;4.780;2023-03-01T05:50:22;-1.30;81.70
55836;DHT22;66908;50.988;4.780;2023-03-01T05:55:29;-1.20;81.60
55836;DHT22;66908;50.988;4.780;2023-03-01T05:57:58;-1.40;78.90
55836;DHT22;66908;50.988;4.780;2023-03-01T06:00:24;-1.40;80.10
55836;DHT22;66908;50.988;4.780;2023-03-01T06:02:50;-1.40;80.20
55836;DHT22;66908;50.988;4.780;2023-03-01T06:05:17;-1.30;80.10
55836;DHT22;66908;50.988;4.780;2023-03-01T06:07:43;-1.20;79.90
55836;DHT22;66908;50.988;4.780;2023-03-01T06:10:10;-1.30;80.70
55836;DHT22;66908;50.988;4.780;2023-03-01T06:12:38;-1.40;81.50
55836;DHT22;66908;50.988;4.780;2023-03-01T06:15:05;-1.50;81.90
55836;DHT22;66908;50.988;4.780;2023-03-01T06:17:33;-1.50;82.10
55836;DHT22;66908;50.988;4.780;2023-03-01T06:20:04;-1.20;81.10
55836;DHT22;66908;50.988;4.780;2023-03-01T06:22:30;-1.10;80.60
55836;DHT22;66908;50.988;4.780;2023-03-01T06:24:56;-1.10;80.60
55836;DHT22;66908;50.988;4.780;2023-03-01T06:27:22;-1.30;81.00
55836;DHT22;66908;50.988;4.780;2023-03-01T06:29:48;-1.30;81.40
55836;DHT22;66908;50.988;4.780;2023-03-01T06:32:14;-1.40;82.10
55836;DHT22;66908;50.988;4.780;2023-03-01T06:34:40;-1.40;82.50
55836;DHT22;66908;50.988;4.780;2023-03-01T06:37:06;-1.40;82.20
55836;DHT22;66908;50.988;4.780;2023-03-01T06:39:32;-1.50;82.30
55836;DHT22;66908;50.988;4.780;2023-03-01T06:41:59;-1.40;82.70
55836;DHT22;66908;50.988;4.780;2023-03-01T06:44:25;-1.40;83.00
55836;DHT22;66908;50.988;4.780;2023-03-01T06:46:52;-1.30;82.10
55836;DHT22;66908;50.988;4.780;2023-03-01T06:49:18;-1.30;82.30
55836;DHT22;66908;50.988;4.780;2023-03-01T06:51:45;-1.30;82.40
55836;DHT22;66908;50.988;4.780;2023-03-01T06:54:11;-1.30;79.90
55836;DHT22;66908;50.988;4.780;2023-03-01T06:56:37;-1.30;80.30
55836;DHT22;66908;50.988;4.780;2023-03-01T06:59:03;-1.50;81.00
55836;DHT22;66908;50.988;4.780;2023-03-01T07:01:30;-1.70;82.70
55836;DHT22;66908;50.988;4.780;2023-03-01T07:03:56;-2.10;84.20
55836;DHT22;66908;50.988;4.780;2023-03-01T07:06:22;-2.00;84.90
55836;DHT22;66908;50.988;4.780;2023-03-01T07:08:48;-1.70;83.90
55836;DHT22;66908;50.988;4.780;2023-03-01T07:11:14;-1.70;83.70
55836;DHT22;66908;50.988;4.780;2023-03-01T07:13:40;-1.50;82.80
55836;DHT22;66908;50.988;4.780;2023-03-01T07:16:07;-1.50;82.50
55836;DHT22;66908;50.988;4.780;2023-03-01T07:18:33;-1.30;82.20
55836;DHT22;66908;50.988;4.780;2023-03-01T07:21:07;-1.00;80.70
55836;DHT22;66908;50.988;4.780;2023-03-01T07:23:33;-0.90;79.90
55836;DHT22;66908;50.988;4.780;2023-03-01T07:25:59;-0.70;79.70
55836;DHT22;66908;50.988;4.780;2023-03-01T07:28:26;-0.60;79.10
55836;DHT22;66908;50.988;4.780;2023-03-01T07:30:53;-0.60;79.30
55836;DHT22;66908;50.988;4.780;2023-03-01T07:33:19;-0.80;79.90
55836;DHT22;66908;50.988;4.780;2023-03-01T07:35:45;-0.80;80.60
55836;DHT22;66908;50.988;4.780;2023-03-01T07:38:11;-0.80;80.90
55836;DHT22;66908;50.988;4.780;2023-03-01T07:40:37;-0.60;80.50
55836;DHT22;66908;50.988;4.780;2023-03-01T07:43:03;-0.30;79.40
55836;DHT22;66908;50.988;4.780;2023-03-01T07:45:29;0.00;78.20
55836;DHT22;66908;50.988;4.780;2023-03-01T07:47:55;0.20;77.20
55836;DHT22;66908;50.988;4.780;2023-03-01T07:50:22;0.50;76.30
55836;DHT22;66908;50.988;4.780;2023-03-01T07:52:49;0.90;74.90
55836;DHT22;66908;50.988;4.780;2023-03-01T07:55:16;1.10;74.50
55836;DHT22;66908;50.988;4.780;2023-03-01T07:57:42;1.20;74.30
55836;DHT22;66908;50.988;4.780;2023-03-01T08:00:11;1.50;72.90
55836;DHT22;66908;50.988;4.780;2023-03-01T08:02:38;1.90;72.00
55836;DHT22;66908;50.988;4.780;2023-03-01T08:05:06;1.90;71.40
55836;DHT22;66908;50.988;4.780;2023-03-01T08:07:33;1.90;72.30
55836;DHT22;66908;50.988;4.780;2023-03-01T08:09:58;1.90;72.70
55836;DHT22;66908;50.988;4.780;2023-03-01T08:12:24;1.80;72.20
55836;DHT22;66908;50.988;4.780;2023-03-01T08:14:53;2.10;71.70
55836;DHT22;66908;50.988;4.780;2023-03-01T08:17:19;2.00;71.40
55836;DHT22;66908;50.988;4.780;2023-03-01T08:19:45;1.80;72.50
55836;DHT22;66908;50.988;4.780;2023-03-01T08:22:11;1.80;71.90
55836;DHT22;66908;50.988;4.780;2023-03-01T08:24:37;1.80;72.50
55836;DHT22;66908;50.988;4.780;2023-03-01T08:27:03;1.60;73.20
55836;DHT22;66908;50.988;4.780;2023-03-01T08:29:33;1.50;73.40
55836;DHT22;66908;50.988;4.780;2023-03-01T08:31:59;1.70;74.50
55836;DHT22;66908;50.988;4.780;2023-03-01T08:34:25;1.60;72.70
55836;DHT22;66908;50.988;4.780;2023-03-01T08:36:51;1.80;72.20
55836;DHT22;66908;50.988;4.780;2023-03-01T08:39:19;1.90;72.40
55836;DHT22;66908;50.988;4.780;2023-03-01T08:41:45;2.00;72.50
55836;DHT22;66908;50.988;4.780;2023-03-01T08:44:13;2.10;72.40
55836;DHT22;66908;50.988;4.780;2023-03-01T08:46:40;2.10;71.60
55836;DHT22;66908;50.988;4.780;2023-03-01T08:49:07;2.30;71.50
55836;DHT22;66908;50.988;4.780;2023-03-01T08:51:34;2.60;70.20
55836;DHT22;66908;50.988;4.780;2023-03-01T08:54:07;2.70;70.00
55836;DHT22;66908;50.988;4.780;2023-03-01T08:56:33;2.60;71.30
55836;DHT22;66908;50.988;4.780;2023-03-01T08:59:00;2.50;70.10
55836;DHT22;66908;50.988;4.780;2023-03-01T09:01:26;2.40;70.50
55836;DHT22;66908;50.988;4.780;2023-03-01T09:03:52;2.50;70.60
55836;DHT22;66908;50.988;4.780;2023-03-01T09:06:18;2.50;70.20
55836;DHT22;66908;50.988;4.780;2023-03-01T09:08:46;2.40;70.00
55836;DHT22;66908;50.988;4.780;2023-03-01T09:11:15;2.50;71.10
55836;DHT22;66908;50.988;4.780;2023-03-01T09:13:43;2.80;69.90
55836;DHT22;66908;50.988;4.780;2023-03-01T09:16:10;2.90;70.50
55836;DHT22;66908;50.988;4.780;2023-03-01T09:18:36;3.00;68.60
55836;DHT22;66908;50.988;4.780;2023-03-01T09:21:08;3.20;69.50
55836;DHT22;66908;50.988;4.780;2023-03-01T09:23:36;3.20;66.30
55836;DHT22;66908;50.988;4.780;2023-03-01T09:26:07;3.10;66.40
55836;DHT22;66908;50.988;4.780;2023-03-01T09:28:35;3.10;66.40
55836;DHT22;66908;50.988;4.780;2023-03-01T09:31:02;3.20;67.00
55836;DHT22;66908;50.988;4.780;2023-03-01T09:33:29;3.30;65.80
55836;DHT22;66908;50.988;4.780;2023-03-01T09:36:03;3.50;66.10
55836;DHT22;66908;50.988;4.780;2023-03-01T09:38:30;4.00;63.80
55836;DHT22;66908;50.988;4.780;2023-03-01T09:40:56;3.90;62.90
55836;DHT22;66908;50.988;4.780;2023-03-01T09:46:10;4.30;62.50
55836;DHT22;66908;50.988;4.780;2023-03-01T09:49:24;4.50;63.50
55836;DHT22;66908;50.988;4.780;2023-03-01T09:52:23;4.70;60.80
55836;DHT22;66908;50.988;4.780;2023-03-01T09:54:54;4.30;61.60
55836;DHT22;66908;50.988;4.780;2023-03-01T09:57:30;4.30;64.50
55836;DHT22;66908;50.988;4.780;2023-03-01T10:02:39;4.40;62.10
55836;DHT22;66908;50.988;4.780;2023-03-01T10:10:40;5.00;61.60
55836;DHT22;66908;50.988;4.780;2023-03-01T10:13:19;4.90;60.40
55836;DHT22;66908;50.988;4.780;2023-03-01T10:15:52;4.90;60.60
55836;DHT22;66908;50.988;4.780;2023-03-01T10:18:29;4.90;60.50
55836;DHT22;66908;50.988;4.780;2023-03-01T10:21:05;5.10;61.30
55836;DHT22;66908;50.988;4.780;2023-03-01T10:23:34;4.90;59.70
55836;DHT22;66908;50.988;4.780;2023-03-01T10:26:11;4.80;60.50
55836;DHT22;66908;50.988;4.780;2023-03-01T10:28:45;4.90;60.00
55836;DHT22;66908;50.988;4.780;2023-03-01T10:31:16;5.00;58.90
55836;DHT22;66908;50.988;4.780;2023-03-01T10:33:44;4.90;59.60
55836;DHT22;66908;50.988;4.780;2023-03-01T10:36:10;4.80;58.80
55836;DHT22;66908;50.988;4.780;2023-03-01T10:38:55;4.90;59.00
55836;DHT22;66908;50.988;4.780;2023-03-01T10:41:25;5.10;59.30
55836;DHT22;66908;50.988;4.780;2023-03-01T10:43:55;5.30;59.40
55836;DHT22;66908;50.988;4.780;2023-03-01T10:49:23;5.10;59.30
55836;DHT22;66908;50.988;4.780;2023-03-01T10:51:52;5.10;58.60
55836;DHT22;66908;50.988;4.780;2023-03-01T10:54:22;5.40;58.00
55836;DHT22;66908;50.988;4.780;2023-03-01T10:56:59;5.70;56.20
55836;DHT22;66908;50.988;4.780;2023-03-01T10:59:34;5.90;55.70
55836;DHT22;66908;50.988;4.780;2023-03-01T11:04:34;6.00;56.00
55836;DHT22;66908;50.988;4.780;2023-03-01T11:07:01;6.20;55.00
55836;DHT22;66908;50.988;4.780;2023-03-01T11:09:32;6.20;56.20
55836;DHT22;66908;50.988;4.780;2023-03-01T11:12:08;6.20;55.20
55836;DHT22;66908;50.988;4.780;2023-03-01T11:14:53;6.20;54.80
55836;DHT22;66908;50.988;4.780;2023-03-01T11:17:27;6.60;54.30
55836;DHT22;66908;50.988;4.780;2023-03-01T11:22:58;6.00;56.80
55836;DHT22;66908;50.988;4.780;2023-03-01T11:25:28;5.90;55.60
55836;DHT22;66908;50.988;4.780;2023-03-01T11:27:55;6.00;55.10
55836;DHT22;66908;50.988;4.780;2023-03-01T11:30:43;5.80;56.80
55836;DHT22;66908;50.988;4.780;2023-03-01T11:33:16;5.80;55.60
55836;DHT22;66908;50.988;4.780;2023-03-01T11:35:58;6.10;55.00
55836;DHT22;66908;50.988;4.780;2023-03-01T11:38:28;6.50;54.80
55836;DHT22;66908;50.988;4.780;2023-03-01T11:40:59;6.70;52.80
55836;DHT22;66908;50.988;4.780;2023-03-01T12:07:01;7.60;51.20
55836;DHT22;66908;50.988;4.780;2023-03-01T12:15:50;7.40;51.30
55836;DHT22;66908;50.988;4.780;2023-03-01T12:26:39;7.30;52.60
55836;DHT22;66908;50.988;4.780;2023-03-01T12:35:16;7.10;54.00
55836;DHT22;66908;50.988;4.780;2023-03-01T12:49:17;7.20;51.60
55836;DHT22;66908;50.988;4.780;2023-03-01T12:52:02;7.30;51.30
55836;DHT22;66908;50.988;4.780;2023-03-01T12:54:35;7.70;51.00
55836;DHT22;66908;50.988;4.780;2023-03-01T12:57:38;7.80;49.60
55836;DHT22;66908;50.988;4.780;2023-03-01T13:00:22;7.80;51.20
55836;DHT22;66908;50.988;4.780;2023-03-01T13:08:27;7.20;51.60
55836;DHT22;66908;50.988;4.780;2023-03-01T13:11:01;7.10;51.50
55836;DHT22;66908;50.988;4.780;2023-03-01T13:13:29;7.50;50.60
55836;DHT22;66908;50.988;4.780;2023-03-01T13:15:55;7.70;50.00
55836;DHT22;66908;50.988;4.780;2023-03-01T13:20:55;7.40;50.80
55836;DHT22;66908;50.988;4.780;2023-03-01T13:26:11;7.50;50.10
55836;DHT22;66908;50.988;4.780;2023-03-01T13:28:50;7.70;49.60
55836;DHT22;66908;50.988;4.780;2023-03-01T13:33:51;7.90;50.20
55836;DHT22;66908;50.988;4.780;2023-03-01T13:39:01;7.50;50.80
55836;DHT22;66908;50.988;4.780;2023-03-01T13:47:07;7.80;50.60
55836;DHT22;66908;50.988;4.780;2023-03-01T13:49:49;8.20;51.00
55836;DHT22;66908;50.988;4.780;2023-03-01T13:55:00;8.50;49.40
55836;DHT22;66908;50.988;4.780;2023-03-01T13:57:37;8.20;49.50
55836;DHT22;66908;50.988;4.780;2023-03-01T14:00:07;8.60;48.10
55836;DHT22;66908;50.988;4.780;2023-03-01T14:02:33;8.50;48.20
55836;DHT22;66908;50.988;4.780;2023-03-01T14:05:00;8.40;49.80
55836;DHT22;66908;50.988;4.780;2023-03-01T14:07:27;8.10;49.80
55836;DHT22;66908;50.988;4.780;2023-03-01T14:09:59;7.90;49.00
55836;DHT22;66908;50.988;4.780;2023-03-01T14:20:12;9.30;46.80
55836;DHT22;66908;50.988;4.780;2023-03-01T14:22:41;9.90;45.70
55836;DHT22;66908;50.988;4.780;2023-03-01T14:25:53;10.20;46.20
55836;DHT22;66908;50.988;4.780;2023-03-01T14:28:31;10.00;46.20
55836;DHT22;66908;50.988;4.780;2023-03-01T14:31:00;9.90;45.30
55836;DHT22;66908;50.988;4.780;2023-03-01T14:33:36;10.00;45.20
55836;DHT22;66908;50.988;4.780;2023-03-01T14:38:42;9.90;45.30
55836;DHT22;66908;50.988;4.780;2023-03-01T14:41:20;9.60;45.90
55836;DHT22;66908;50.988;4.780;2023-03-01T14:43:53;9.40;47.50
55836;DHT22;66908;50.988;4.780;2023-03-01T14:46:24;9.00;47.10
55836;DHT22;66908;50.988;4.780;2023-03-01T14:48:56;8.60;48.00
55836;DHT22;66908;50.988;4.780;2023-03-01T14:51:23;8.70;48.00
55836;DHT22;66908;50.988;4.780;2023-03-01T14:53:50;8.50;48.50
55836;DHT22;66908;50.988;4.780;2023-03-01T14:56:17;8.90;47.60
55836;DHT22;66908;50.988;4.780;2023-03-01T14:58:44;9.10;47.50
55836;DHT22;66908;50.988;4.780;2023-03-01T15:01:15;8.50;48.10
55836;DHT22;66908;50.988;4.780;2023-03-01T15:03:44;8.30;48.30
55836;DHT22;66908;50.988;4.780;2023-03-01T15:06:12;8.20;48.60
55836;DHT22;66908;50.988;4.780;2023-03-01T15:08:42;8.40;48.50
55836;DHT22;66908;50.988;4.780;2023-03-01T15:11:23;8.40;48.70
55836;DHT22;66908;50.988;4.780;2023-03-01T15:13:51;8.40;49.30
55836;DHT22;66908;50.988;4.780;2023-03-01T15:16:19;8.30;49.10
55836;DHT22;66908;50.988;4.780;2023-03-01T15:18:48;8.30;48.90
55836;DHT22;66908;50.988;4.780;2023-03-01T15:21:20;8.30;49.30
55836;DHT22;66908;50.988;4.780;2023-03-01T15:23:53;8.30;49.20
55836;DHT22;66908;50.988;4.780;2023-03-01T15:26:25;8.10;49.50
55836;DHT22;66908;50.988;4.780;2023-03-01T15:28:54;7.80;49.00
55836;DHT22;66908;50.988;4.780;2023-03-01T15:31:28;7.80;49.90
55836;DHT22;66908;50.988;4.780;2023-03-01T15:34:28;7.70;49.00
55836;DHT22;66908;50.988;4.780;2023-03-01T15:36:55;7.80;50.00
55836;DHT22;66908;50.988;4.780;2023-03-01T15:39:41;8.00;50.00
55836;DHT22;66908;50.988;4.780;2023-03-01T15:42:11;7.90;50.50
55836;DHT22;66908;50.988;4.780;2023-03-01T15:44:40;7.80;50.10
55836;DHT22;66908;50.988;4.780;2023-03-01T15:47:31;7.50;51.50
55836;DHT22;66908;50.988;4.780;2023-03-01T15:49:58;7.50;52.40
55836;DHT22;66908;50.988;4.780;2023-03-01T15:52:26;7.60;52.20
55836;DHT22;66908;50.988;4.780;2023-03-01T15:55:21;7.50;51.50
55836;DHT22;66908;50.988;4.780;2023-03-01T15:57:47;7.70;52.00
55836;DHT22;66908;50.988;4.780;2023-03-01T16:00:15;7.90;50.90
55836;DHT22;66908;50.988;4.780;2023-03-01T16:02:42;7.90;50.60
55836;DHT22;66908;50.988;4.780;2023-03-01T16:05:26;7.70;51.10
55836;DHT22;66908;50.988;4.780;2023-03-01T16:07:53;7.70;51.30
55836;DHT22;66908;50.988;4.780;2023-03-01T16:10:19;7.60;51.80
55836;DHT22;66908;50.988;4.780;2023-03-01T16:12:45;7.60;51.70
55836;DHT22;66908;50.988;4.780;2023-03-01T16:15:22;7.30;52.10
55836;DHT22;66908;50.988;4.780;2023-03-01T16:17:48;7.20;53.10
55836;DHT22;66908;50.988;4.780;2023-03-01T16:20:14;7.30;52.10
55836;DHT22;66908;50.988;4.780;2023-03-01T16:22:45;7.30;52.90
55836;DHT22;66908;50.988;4.780;2023-03-01T16:25:13;7.40;52.30
55836;DHT22;66908;50.988;4.780;2023-03-01T16:27:42;7.40;53.00
55836;DHT22;66908;50.988;4.780;2023-03-01T16:30:10;7.40;52.70
55836;DHT22;66908;50.988;4.780;2023-03-01T16:32:40;7.20;52.90
55836;DHT22;66908;50.988;4.780;2023-03-01T16:35:07;7.20;53.70
55836;DHT22;66908;50.988;4.780;2023-03-01T16:37:35;7.30;53.70
55836;DHT22;66908;50.988;4.780;2023-03-01T16:40:02;7.30;52.20
55836;DHT22;66908;50.988;4.780;2023-03-01T16:42:34;7.40;52.20
55836;DHT22;66908;50.988;4.780;2023-03-01T16:45:00;7.40;51.60
55836;DHT22;66908;50.988;4.780;2023-03-01T16:47:28;7.30;52.40
55836;DHT22;66908;50.988;4.780;2023-03-01T16:49:54;7.20;52.30
55836;DHT22;66908;50.988;4.780;2023-03-01T16:52:21;7.00;53.50
55836;DHT22;66908;50.988;4.780;2023-03-01T16:54:47;7.00;52.40
55836;DHT22;66908;50.988;4.780;2023-03-01T16:57:12;6.90;54.10
55836;DHT22;66908;50.988;4.780;2023-03-01T16:59:38;6.90;53.10
55836;DHT22;66908;50.988;4.780;2023-03-01T17:02:05;6.90;53.60
55836;DHT22;66908;50.988;4.780;2023-03-01T17:04:35;6.80;52.90
55836;DHT22;66908;50.988;4.780;2023-03-01T17:07:00;6.60;53.40
55836;DHT22;66908;50.988;4.780;2023-03-01T17:09:26;6.60;54.30
55836;DHT22;66908;50.988;4.780;2023-03-01T17:11:52;6.50;54.50
55836;DHT22;66908;50.988;4.780;2023-03-01T17:14:19;6.40;54.40
55836;DHT22;66908;50.988;4.780;2023-03-01T17:16:46;6.40;54.80
55836;DHT22;66908;50.988;4.780;2023-03-01T17:19:12;6.40;54.00
55836;DHT22;66908;50.988;4.780;2023-03-01T17:21:43;6.40;54.60
55836;DHT22;66908;50.988;4.780;2023-03-01T17:24:09;6.30;54.50
55836;DHT22;66908;50.988;4.780;2023-03-01T17:26:35;6.40;55.00
55836;DHT22;66908;50.988;4.780;2023-03-01T17:29:02;6.20;54.90
55836;DHT22;66908;50.988;4.780;2023-03-01T17:31:31;6.30;55.10
55836;DHT22;66908;50.988;4.780;2023-03-01T17:33:57;6.30;54.90
55836;DHT22;66908;50.988;4.780;2023-03-01T17:36:22;6.20;55.00
55836;DHT22;66908;50.988;4.780;2023-03-01T17:38:48;6.00;55.60
55836;DHT22;66908;50.988;4.780;2023-03-01T17:41:14;5.70;56.90
55836;DHT22;66908;50.988;4.780;2023-03-01T17:43:46;5.60;57.00
55836;DHT22;66908;50.988;4.780;2023-03-01T17:46:11;5.70;56.70
55836;DHT22;66908;50.988;4.780;2023-03-01T17:48:37;5.60;56.70
55836;DHT22;66908;50.988;4.780;2023-03-01T17:51:07;5.60;57.00
55836;DHT22;66908;50.988;4.780;2023-03-01T17:53:34;5.80;56.70
55836;DHT22;66908;50.988;4.780;2023-03-01T17:56:02;5.80;55.70
55836;DHT22;66908;50.988;4.780;2023-03-01T17:58:28;5.80;56.00
55836;DHT22;66908;50.988;4.780;2023-03-01T18:00:54;5.80;56.20
55836;DHT22;66908;50.988;4.780;2023-03-01T18:03:20;5.70;56.40
55836;DHT22;66908;50.988;4.780;2023-03-01T18:05:46;5.70;56.00